Wisconsin Rapids, WI

1:27 AM CST on January 29, 2015 (GMT -0600)
South East Grand Rapids, WI | Change Station
CLOSE
Current Station
Personal Weather Station
Location: Wisconsin Rapids, WI
Elevation: 1073 ft
Nearby Weather Stations
Active Advisory: Freezing Rain Advisory

Elev 1073 ft 44.34 °N, 89.77 °W | Updated 1 second ago

Overcast
Overcast
26.8 °F
Feels Like 27 °F
N
0.0
Wind Variable Wind from ESE
Gusts 0.0 mph

Today
High -- | Low -- °F
--% Chance of Precip.
Yesterday
High -- | Low -- °F
Precip. -- in
7:20 AM 5:04 PM
Waxing Gibbous, 72% visible
Pressure 29.81 in
Visibility 2.5 miles
Clouds Overcast 700 ft
Windchill 27 °F
Dew Point 25 °F
Humidity 94%
Rainfall 0.00 in
Snow Depth Not available.
UV 0 out of 12
Pollen .10 out of 12
Air Quality Not available.
Flu Activity Not available.
SPECI KISW 290720Z AUTO 00000KT 2 1/2SM BR OVC007 M03/M04 A2981 RMK AO2 T10281044

More Conditions Fewer Conditions

Pressure 29.81 in
Visibility 2.5 miles
Clouds Overcast 700 ft
Windchill 27 °F
Dew Point 25 °F
Humidity 94%
Rainfall 0.00 in
Snow Depth Not available.
UV 0 out of 12
Pollen .10 out of 12
Air Quality Not available.
Flu Activity Not available.
SPECI KISW 290720Z AUTO 00000KT 2 1/2SM BR OVC007 M03/M04 A2981 RMK AO2 T10281044

More Conditions Fewer Conditions

10-Day Weather Forecast

Almanac

Astronomy

Jan. 29, 2015 Rise Set
Actual Time
Civil Twilight
Nautical Twilight
Astronomical Twilight
Moon
Length of Visible Light
Length of Day
Tomorrow will be .
, % of the Moon is Illuminated

Today's Extremes

State Highs State Lows

Community

WunderPhotos

Upload Photos

1,791,387 photos uploaded!

WunderBlogs® & News

Nearby

Air Quality

  Air Quality AQ Index Pollutant
Not available.

Snow Depth

Station Depth Elevation

Earthquake Activity

City Distance Mag. Time & Date
Minimum magnitude displayed is 2.5.

Coastal Water Temperatures

Place Temperature

Nearby Weather Stations